| time (UTC) | temp C | wind direction | speed KPH | gust KPH | rain 1hr cm | rain 24hr cm | rain mn cm | humidity % | barometer mb |
| 20260508084803 | 17 | 174 | 11.3 | 19.3 | 0.00 | 0.00 | 0.00 | 66 | 1011.2 |
| 20260508084303 | 17 | 220 | 9.7 | 14.5 | 0.00 | 0.00 | 0.00 | 67 | 1011.2 |
| 20260508083304 | 17 | 234 | 12.9 | 16.1 | 0.00 | 0.00 | 0.00 | 68 | 1011.1 |
| 20260508082306 | 17 | 243 | 6.4 | 14.5 | 0.00 | 0.00 | 0.00 | 72 | 1011.3 |
| 20260508081804 | 17 | 206 | 9.7 | 14.5 | 0.00 | 0.00 | 0.00 | 72 | 1011.2 |
| 20260508080804 | 16 | 188 | 6.4 | 11.3 | 0.00 | 0.00 | 0.00 | 73 | 1011.1 |
| 20260508075804 | 16 | 184 | 8.0 | 11.3 | 0.00 | 0.00 | 0.00 | 74 | 1011.1 |
| 20260508075308 | 16 | 155 | 3.2 | 9.7 | 0.00 | 0.00 | 0.00 | 76 | 1011.0 |
| 20260508074804 | 16 | 195 | 8.0 | 12.9 | 0.00 | 0.00 | 0.00 | 76 | 1011.0 |
| 20260508074304 | 16 | 173 | 4.8 | 11.3 | 0.00 | 0.00 | 0.00 | 76 | 1010.9 |
| 20260508073804 | 16 | 180 | 8.0 | 11.3 | 0.00 | 0.00 | 0.00 | 76 | 1010.9 |
| 20260508073304 | 15 | 160 | 8.0 | 11.3 | 0.00 | 0.00 | 0.00 | 76 | 1010.8 |
| 20260508072307 | 15 | 167 | 6.4 | 9.7 | 0.00 | 0.00 | 0.00 | 77 | 1010.6 |
| 20260508071804 | 15 | 173 | 8.0 | 11.3 | 0.00 | 0.00 | 0.00 | 77 | 1010.6 |
| 20260508071304 | 15 | 171 | 4.8 | 11.3 | 0.00 | 0.00 | 0.00 | 78 | 1010.7 |
| 20260508070804 | 15 | 172 | 6.4 | 11.3 | 0.00 | 0.00 | 0.00 | 78 | 1010.7 |
| 20260508070304 | 15 | 169 | 8.0 | 11.3 | 0.00 | 0.00 | 0.00 | 78 | 1010.7 |
| 20260508065804 | 15 | 195 | 8.0 | 12.9 | 0.00 | 0.00 | 0.00 | 78 | 1010.7 |
| 20260508065306 | 15 | 178 | 6.4 | 11.3 | 0.00 | 0.00 | 0.00 | 79 | 1010.7 |
| 20260508064804 | 15 | 182 | 4.8 | 11.3 | 0.00 | 0.00 | 0.00 | 79 | 1010.7 |
| 20260508064304 | 15 | 190 | 4.8 | 11.3 | 0.00 | 0.00 | 0.00 | 80 | 1010.6 |
| 20260508063804 | 15 | 187 | 6.4 | 11.3 | 0.00 | 0.00 | 0.00 | 80 | 1010.6 |
| 20260508063304 | 14 | 171 | 4.8 | 9.7 | 0.00 | 0.00 | 0.00 | 80 | 1010.6 |
| 20260508062804 | 14 | 171 | 4.8 | 9.7 | 0.00 | 0.00 | 0.00 | 80 | 1010.6 |
| 20260508062306 | 14 | 197 | 4.8 | 8.0 | 0.00 | 0.00 | 0.00 | 80 | 1010.6 |
| 20260508061803 | 14 | 202 | 4.8 | 11.3 | 0.00 | 0.00 | 0.00 | 80 | 1010.6 |
| 20260508061304 | 14 | 182 | 6.4 | 12.9 | 0.00 | 0.00 | 0.00 | 80 | 1010.5 |
| 20260508060803 | 14 | 152 | 3.2 | 9.7 | 0.00 | 0.00 | 0.00 | 80 | 1010.4 |
| 20260508060304 | 14 | 143 | 4.8 | 9.7 | 0.00 | 0.00 | 0.00 | 80 | 1010.4 |
| 20260508055803 | 14 | 167 | 6.4 | 9.7 | 0.00 | 0.00 | 0.00 | 80 | 1010.4 |
| 20260508055306 | 14 | 183 | 6.4 | 9.7 | 0.00 | 0.00 | 0.00 | 80 | 1010.4 |
| 20260508054804 | 14 | 178 | 3.2 | 8.0 | 0.00 | 0.00 | 0.00 | 80 | 1010.4 |
| 20260508054303 | 14 | 189 | 8.0 | 11.3 | 0.00 | 0.00 | 0.00 | 79 | 1010.3 |
| 20260508053804 | 14 | 185 | 6.4 | 9.7 | 0.00 | 0.00 | 0.00 | 79 | 1010.2 |
| 20260508053304 | 14 | 182 | 4.8 | 8.0 | 0.00 | 0.00 | 0.00 | 79 | 1010.2 |
| 20260508052804 | 14 | 189 | 4.8 | 8.0 | 0.00 | 0.00 | 0.00 | 79 | 1010.1 |
| 20260508051803 | 14 | 174 | 4.8 | 8.0 | 0.00 | 0.00 | 0.00 | 78 | 1009.7 |
| 20260508051304 | 15 | 149 | 3.2 | 4.8 | 0.00 | 0.00 | 0.00 | 79 | 1009.7 |
| 20260508050803 | 15 | 175 | 3.2 | 4.8 | 0.00 | 0.00 | 0.00 | 79 | 1009.7 |
| 20260508050304 | 14 | 153 | 3.2 | 11.3 | 0.00 | 0.00 | 0.00 | 79 | 1009.7 |
| 20260508045804 | 14 | 169 | 4.8 | 11.3 | 0.00 | 0.00 | 0.00 | 79 | 1009.6 |
| 20260508045306 | 14 | 182 | 6.4 | 11.3 | 0.00 | 0.00 | 0.00 | 78 | 1009.6 |
| 20260508044804 | 15 | 203 | 6.4 | 9.7 | 0.00 | 0.00 | 0.00 | 78 | 1009.4 |
| 20260508044304 | 15 | 176 | 4.8 | 9.7 | 0.00 | 0.00 | 0.00 | 78 | 1009.4 |
| 20260508043804 | 15 | 210 | 3.2 | 9.7 | 0.00 | 0.00 | 0.00 | 77 | 1009.2 |
| 20260508043304 | 15 | 214 | 4.8 | 9.7 | 0.00 | 0.00 | 0.00 | 78 | 1009.2 |
| 20260508042804 | 15 | 174 | 4.8 | 9.7 | 0.00 | 0.00 | 0.00 | 78 | 1009.0 |
| 20260508042307 | 15 | 136 | 3.2 | 8.0 | 0.00 | 0.00 | 0.00 | 78 | 1009.3 |
| 20260508041804 | 15 | 157 | 3.2 | 4.8 | 0.00 | 0.00 | 0.00 | 78 | 1009.3 |
| 20260508040304 | 15 | 164 | 3.2 | 8.0 | 0.00 | 0.00 | 0.00 | 77 | 1009.5 |
| 20260508035803 | 15 | 177 | 6.4 | 12.9 | 0.00 | 0.00 | 0.00 | 77 | 1009.5 |
| 20260508035306 | 15 | 205 | 6.4 | 9.7 | 0.00 | 0.00 | 0.00 | 77 | 1009.5 |
| 20260508034804 | 15 | 209 | 4.8 | 9.7 | 0.00 | 0.00 | 0.00 | 76 | 1009.3 |
| 20260508034303 | 15 | 185 | 1.6 | 4.8 | 0.00 | 0.00 | 0.00 | 76 | 1009.3 |
| 20260508033803 | 15 | 123 | 3.2 | 8.0 | 0.00 | 0.00 | 0.00 | 76 | 1009.5 |
| 20260508033304 | 15 | 148 | 4.8 | 9.7 | 0.00 | 0.00 | 0.00 | 76 | 1009.5 |
| 20260508032804 | 15 | 150 | 4.8 | 9.7 | 0.00 | 0.00 | 0.00 | 76 | 1009.5 |
| 20260508032306 | 15 | 178 | 4.8 | 8.0 | 0.00 | 0.00 | 0.00 | 76 | 1009.5 |
| 20260508031303 | 15 | 184 | 4.8 | 8.0 | 0.00 | 0.00 | 0.00 | 76 | 1009.5 |
| 20260508030804 | 15 | 189 | 3.2 | 8.0 | 0.00 | 0.00 | 0.00 | 76 | 1009.6 |
| 20260508030304 | 15 | 173 | 4.8 | 11.3 | 0.00 | 0.00 | 0.00 | 76 | 1009.7 |
| 20260508025803 | 15 | 171 | 3.2 | 9.7 | 0.00 | 0.00 | 0.00 | 76 | 1009.7 |
| 20260508024803 | 15 | 191 | 3.2 | 8.0 | 0.00 | 0.00 | 0.00 | 76 | 1009.9 |
| 20260508024304 | 15 | 173 | 3.2 | 9.7 | 0.00 | 0.00 | 0.00 | 76 | 1009.8 |
| 20260508023304 | 15 | 168 | 6.4 | 11.3 | 0.00 | 0.00 | 0.00 | 76 | 1009.7 |
| 20260508022804 | 15 | 191 | 4.8 | 8.0 | 0.00 | 0.00 | 0.00 | 76 | 1009.8 |
| 20260508022306 | 15 | 183 | 8.0 | 11.3 | 0.00 | 0.00 | 0.00 | 76 | 1009.9 |
| 20260508021804 | 15 | 187 | 8.0 | 11.3 | 0.00 | 0.00 | 0.00 | 75 | 1009.7 |
| 20260508021304 | 15 | 193 | 6.4 | 14.5 | 0.00 | 0.00 | 0.00 | 75 | 1009.7 |
| 20260508020804 | 15 | 202 | 8.0 | 12.9 | 0.00 | 0.00 | 0.00 | 75 | 1009.7 |
| 20260508020304 | 15 | 200 | 9.7 | 14.5 | 0.00 | 0.00 | 0.00 | 75 | 1009.7 |
| 20260508015804 | 15 | 177 | 6.4 | 11.3 | 0.00 | 0.00 | 0.00 | 75 | 1009.6 |
| 20260508015306 | 15 | 185 | 8.0 | 11.3 | 0.00 | 0.00 | 0.00 | 75 | 1009.7 |
| 20260508014804 | 15 | 169 | 3.2 | 8.0 | 0.00 | 0.00 | 0.00 | 75 | 1009.7 |
| 20260508014304 | 15 | 171 | 1.6 | 4.8 | 0.00 | 0.00 | 0.00 | 76 | 1010.0 |
| 20260508013804 | 15 | 193 | 3.2 | 8.0 | 0.00 | 0.00 | 0.00 | 76 | 1010.0 |
| 20260508013304 | 15 | 197 | 4.8 | 9.7 | 0.00 | 0.00 | 0.00 | 76 | 1010.0 |
| 20260508012307 | 15 | 194 | 8.0 | 12.9 | 0.00 | 0.00 | 0.00 | 75 | 1010.0 |
| 20260508011804 | 15 | 176 | 6.4 | 9.7 | 0.00 | 0.00 | 0.00 | 75 | 1010.1 |
| 20260508010804 | 15 | 185 | 8.0 | 11.3 | 0.00 | 0.00 | 0.00 | 75 | 1010.1 |
| 20260508010304 | 15 | 173 | 8.0 | 11.3 | 0.00 | 0.00 | 0.00 | 75 | 1010.0 |
| 20260508005804 | 15 | 168 | 8.0 | 12.9 | 0.00 | 0.00 | 0.00 | 75 | 1010.4 |
| 20260508005305 | 15 | 180 | 8.0 | 14.5 | 0.00 | 0.00 | 0.00 | 75 | 1010.4 |
| 20260508004804 | 15 | 201 | 8.0 | 12.9 | 0.00 | 0.00 | 0.00 | 75 | 1010.4 |
| 20260508004304 | 16 | 193 | 6.4 | 11.3 | 0.00 | 0.00 | 0.00 | 75 | 1010.3 |
| 20260508003804 | 16 | 195 | 8.0 | 12.9 | 0.00 | 0.00 | 0.00 | 75 | 1010.3 |
| 20260508003304 | 16 | 197 | 8.0 | 12.9 | 0.00 | 0.00 | 0.00 | 75 | 1010.1 |
| 20260508002804 | 16 | 177 | 8.0 | 11.3 | 0.00 | 0.00 | 0.00 | 75 | 1010.1 |
| 20260508002306 | 16 | 190 | 9.7 | 14.5 | 0.00 | 0.00 | 0.00 | 75 | 1010.1 |
| 20260508001804 | 16 | 166 | 6.4 | 11.3 | 0.00 | 0.00 | 0.00 | 75 | 1009.9 |
| 20260508001304 | 16 | 181 | 6.4 | 14.5 | 0.00 | 0.00 | 0.00 | 74 | 1010.1 |
| 20260508000305 | 16 | 175 | 6.4 | 9.7 | 0.00 | 0.00 | 0.00 | 74 | 1010.2 |
| 20260507235804 | 16 | 179 | 4.8 | 11.3 | 0.00 | 0.00 | 0.00 | 74 | 1010.4 |
| 20260507235306 | 16 | 193 | 6.4 | 9.7 | 0.00 | 0.00 | 0.00 | 73 | 1010.4 |
| 20260507234804 | 16 | 188 | 6.4 | 11.3 | 0.00 | 0.00 | 0.00 | 73 | 1010.4 |
| 20260507234304 | 16 | 184 | 6.4 | 11.3 | 0.00 | 0.00 | 0.00 | 72 | 1010.3 |
| 20260507233804 | 16 | 181 | 6.4 | 11.3 | 0.00 | 0.00 | 0.00 | 72 | 1010.2 |
| 20260507233304 | 16 | 181 | 4.8 | 12.9 | 0.00 | 0.00 | 0.00 | 72 | 1010.1 |
| 20260507232803 | 16 | 191 | 8.0 | 12.9 | 0.00 | 0.00 | 0.00 | 72 | 1010.1 |
| 20260507232306 | 16 | 184 | 4.8 | 11.3 | 0.00 | 0.00 | 0.00 | 72 | 1010.3 |
| 20260507231804 | 16 | 178 | 3.2 | 4.8 | 0.00 | 0.00 | 0.00 | 72 | 1010.6 |
| 20260507231304 | 16 | 154 | 4.8 | 8.0 | 0.00 | 0.00 | 0.00 | 72 | 1010.6 |
| 20260507230304 | 16 | 191 | 4.8 | 12.9 | 0.00 | 0.00 | 0.00 | 72 | 1010.5 |
| 20260507225804 | 16 | 174 | 3.2 | 8.0 | 0.00 | 0.00 | 0.00 | 72 | 1010.5 |
| 20260507225306 | 16 | 179 | 4.8 | 9.7 | 0.00 | 0.00 | 0.00 | 72 | 1010.7 |
| 20260507224804 | 16 | 176 | 3.2 | 9.7 | 0.00 | 0.00 | 0.00 | 72 | 1010.7 |
| 20260507224304 | 16 | 184 | 6.4 | 12.9 | 0.00 | 0.00 | 0.00 | 72 | 1010.9 |
| 20260507223804 | 16 | 177 | 4.8 | 8.0 | 0.00 | 0.00 | 0.00 | 71 | 1010.9 |
| 20260507223303 | 16 | 185 | 4.8 | 9.7 | 0.00 | 0.00 | 0.00 | 71 | 1010.9 |
| 20260507222804 | 16 | 176 | 4.8 | 9.7 | 0.00 | 0.00 | 0.00 | 71 | 1010.9 |
| 20260507222306 | 16 | 161 | 4.8 | 9.7 | 0.00 | 0.00 | 0.00 | 70 | 1010.9 |
| 20260507221804 | 16 | 164 | 4.8 | 11.3 | 0.00 | 0.00 | 0.00 | 70 | 1011.0 |
| 20260507220804 | 16 | 184 | 4.8 | 9.7 | 0.00 | 0.00 | 0.00 | 69 | 1010.9 |
| 20260507220304 | 16 | 171 | 4.8 | 11.3 | 0.00 | 0.00 | 0.00 | 69 | 1010.9 |
| 20260507215804 | 16 | 170 | 8.0 | 14.5 | 0.00 | 0.00 | 0.00 | 68 | 1010.9 |
| 20260507214803 | 17 | 174 | 8.0 | 11.3 | 0.00 | 0.00 | 0.00 | 67 | 1010.8 |
| 20260507214303 | 17 | 173 | 4.8 | 9.7 | 0.00 | 0.00 | 0.00 | 66 | 1010.8 |
| 20260507213804 | 17 | 183 | 3.2 | 4.8 | 0.00 | 0.00 | 0.00 | 66 | 1010.8 |
| 20260507213304 | 17 | 185 | 4.8 | 9.7 | 0.00 | 0.00 | 0.00 | 64 | 1010.9 |
| 20260507212803 | 17 | 161 | 3.2 | 8.0 | 0.00 | 0.00 | 0.00 | 64 | 1010.7 |
| 20260507212307 | 17 | 216 | 3.2 | 8.0 | 0.00 | 0.00 | 0.00 | 64 | 1010.7 |
| 20260507211804 | 17 | 225 | 4.8 | 11.3 | 0.00 | 0.00 | 0.00 | 63 | 1010.7 |
| 20260507211303 | 17 | 209 | 4.8 | 11.3 | 0.00 | 0.00 | 0.00 | 63 | 1010.7 |
| 20260507210804 | 17 | 194 | 9.7 | 11.3 | 0.00 | 0.00 | 0.00 | 63 | 1010.6 |
| 20260507210303 | 17 | 187 | 6.4 | 9.7 | 0.00 | 0.00 | 0.00 | 62 | 1010.3 |
| 20260507205804 | 17 | 206 | 6.4 | 9.7 | 0.00 | 0.00 | 0.00 | 62 | 1010.3 |
| 20260507204804 | 17 | 163 | 4.8 | 12.9 | 0.00 | 0.00 | 0.00 | 62 | 1010.3 |
| 20260507204304 | 17 | 291 | 3.2 | 8.0 | 0.00 | 0.00 | 0.00 | 62 | 1010.3 |
| 20260507203304 | 17 | 211 | 4.8 | 11.3 | 0.00 | 0.00 | 0.00 | 62 | 1010.2 |
| 20260507202804 | 17 | 272 | 8.0 | 12.9 | 0.00 | 0.00 | 0.00 | 62 | 1010.2 |
| 20260507202306 | 17 | 231 | 6.4 | 14.5 | 0.00 | 0.00 | 0.00 | 62 | 1010.2 |
| 20260507201804 | 17 | 231 | 6.4 | 14.5 | 0.00 | 0.00 | 0.00 | 62 | 1010.2 |
| 20260507201304 | 17 | 216 | 6.4 | 14.5 | 0.00 | 0.00 | 0.00 | 62 | 1010.2 |
| 20260507200804 | 17 | 223 | 9.7 | 14.5 | 0.00 | 0.00 | 0.00 | 62 | 1010.2 |
| 20260507200304 | 17 | 217 | 4.8 | 16.1 | 0.00 | 0.00 | 0.00 | 62 | 1010.1 |
| 20260507195804 | 17 | 232 | 8.0 | 14.5 | 0.00 | 0.00 | 0.00 | 63 | 1010.1 |
| 20260507195305 | 17 | 228 | 9.7 | 12.9 | 0.00 | 0.00 | 0.00 | 63 | 1010.1 |
| 20260507194804 | 18 | 223 | 11.3 | 19.3 | 0.00 | 0.00 | 0.00 | 63 | 1010.0 |
| 20260507193804 | 18 | 229 | 12.9 | 22.5 | 0.00 | 0.00 | 0.00 | 62 | 1010.0 |
| 20260507193304 | 18 | 230 | 11.3 | 16.1 | 0.00 | 0.00 | 0.00 | 61 | 1009.8 |
| 20260507192804 | 18 | 229 | 9.7 | 16.1 | 0.00 | 0.00 | 0.00 | 61 | 1009.7 |
| 20260507192306 | 18 | 241 | 12.9 | 22.5 | 0.00 | 0.00 | 0.00 | 61 | 1009.7 |
| 20260507191804 | 18 | 226 | 9.7 | 20.9 | 0.00 | 0.00 | 0.00 | 62 | 1009.7 |
| 20260507191304 | 18 | 245 | 12.9 | 22.5 | 0.00 | 0.00 | 0.00 | 61 | 1009.6 |
| 20260507190804 | 18 | 226 | 9.7 | 20.9 | 0.00 | 0.00 | 0.00 | 60 | 1009.6 |
| 20260507190304 | 19 | 226 | 14.5 | 22.5 | 0.00 | 0.00 | 0.00 | 59 | 1009.4 |
| 20260507185804 | 19 | 238 | 14.5 | 22.5 | 0.00 | 0.00 | 0.00 | 58 | 1009.4 |
| 20260507185306 | 19 | 213 | 8.0 | 16.1 | 0.00 | 0.00 | 0.00 | 58 | 1009.3 |
| 20260507184804 | 19 | 235 | 14.5 | 24.1 | 0.00 | 0.00 | 0.00 | 58 | 1009.1 |
| 20260507184304 | 19 | 201 | 14.5 | 24.1 | 0.00 | 0.00 | 0.00 | 57 | 1009.1 |
| 20260507183804 | 20 | 206 | 14.5 | 24.1 | 0.00 | 0.00 | 0.00 | 56 | 1009.0 |
| 20260507183303 | 20 | 243 | 9.7 | 19.3 | 0.00 | 0.00 | 0.00 | 56 | 1009.0 |
| 20260507182804 | 20 | 203 | 14.5 | 20.9 | 0.00 | 0.00 | 0.00 | 55 | 1008.8 |
| 20260507181804 | 20 | 228 | 14.5 | 25.7 | 0.00 | 0.00 | 0.00 | 56 | 1008.7 |
| 20260507175803 | 21 | 228 | 11.3 | 24.1 | 0.00 | 0.00 | 0.00 | 53 | 1008.5 |
| 20260507175306 | 21 | 209 | 16.1 | 25.7 | 0.00 | 0.00 | 0.00 | 53 | 1008.5 |
| 20260507174804 | 21 | 232 | 16.1 | 25.7 | 0.00 | 0.00 | 0.00 | 52 | 1008.5 |
| 20260507174304 | 21 | 205 | 14.5 | 27.4 | 0.00 | 0.00 | 0.00 | 51 | 1008.5 |
| 20260507173804 | 21 | 201 | 14.5 | 24.1 | 0.00 | 0.00 | 0.00 | 51 | 1008.5 |
| 20260507173304 | 21 | 240 | 11.3 | 20.9 | 0.00 | 0.00 | 0.00 | 52 | 1008.2 |
| 20260507172803 | 21 | 208 | 16.1 | 27.4 | 0.00 | 0.00 | 0.00 | 51 | 1008.2 |
| 20260507172307 | 21 | 214 | 16.1 | 25.7 | 0.00 | 0.00 | 0.00 | 50 | 1008.2 |
| 20260507171804 | 21 | 226 | 14.5 | 22.5 | 0.00 | 0.00 | 0.00 | 51 | 1008.2 |
| 20260507170304 | 21 | 210 | 14.5 | 27.4 | 0.00 | 0.00 | 0.00 | 49 | 1008.1 |
| 20260507165804 | 22 | 201 | 14.5 | 22.5 | 0.00 | 0.00 | 0.00 | 48 | 1008.0 |
| 20260507164304 | 22 | 201 | 14.5 | 24.1 | 0.00 | 0.00 | 0.00 | 47 | 1007.9 |
| 20260507163804 | 22 | 230 | 14.5 | 19.3 | 0.00 | 0.00 | 0.00 | 47 | 1007.9 |
| 20260507163304 | 22 | 206 | 17.7 | 25.7 | 0.00 | 0.00 | 0.00 | 46 | 1008.0 |
| 20260507162804 | 22 | 207 | 11.3 | 25.7 | 0.00 | 0.00 | 0.00 | 46 | 1007.9 |
| 20260507162306 | 22 | 199 | 14.5 | 25.7 | 0.00 | 0.00 | 0.00 | 46 | 1007.8 |
| 20260507161804 | 22 | 207 | 11.3 | 24.1 | 0.00 | 0.00 | 0.00 | 47 | 1007.8 |
| 20260507161303 | 22 | 189 | 12.9 | 22.5 | 0.00 | 0.00 | 0.00 | 47 | 1007.8 |
| 20260507160803 | 22 | 244 | 12.9 | 22.5 | 0.00 | 0.00 | 0.00 | 46 | 1007.8 |
| 20260507155803 | 23 | 195 | 14.5 | 24.1 | 0.00 | 0.00 | 0.00 | 44 | 1007.8 |
| 20260507155306 | 22 | 220 | 8.0 | 22.5 | 0.00 | 0.00 | 0.00 | 44 | 1007.8 |
| 20260507154804 | 22 | 257 | 14.5 | 27.4 | 0.00 | 0.00 | 0.00 | 42 | 1007.9 |
| 20260507154304 | 22 | 198 | 8.0 | 25.7 | 0.00 | 0.00 | 0.00 | 44 | 1007.9 |
| 20260507153804 | 22 | 202 | 17.7 | 29.0 | 0.00 | 0.00 | 0.00 | 43 | 1007.9 |
| 20260507153304 | 22 | 233 | 12.9 | 19.3 | 0.00 | 0.00 | 0.00 | 42 | 1007.8 |
| 20260507152306 | 22 | 227 | 11.3 | 25.7 | 0.00 | 0.00 | 0.00 | 42 | 1007.9 |
| 20260507151803 | 22 | 208 | 17.7 | 24.1 | 0.00 | 0.00 | 0.00 | 42 | 1007.9 |
| 20260507151304 | 23 | 173 | 12.9 | 25.7 | 0.00 | 0.00 | 0.00 | 44 | 1008.0 |
| 20260507150804 | 22 | 247 | 11.3 | 24.1 | 0.00 | 0.00 | 0.00 | 44 | 1008.0 |
| 20260507150304 | 22 | 223 | 14.5 | 25.7 | 0.00 | 0.00 | 0.00 | 44 | 1008.0 |
| 20260507145803 | 22 | 207 | 9.7 | 20.9 | 0.00 | 0.00 | 0.00 | 45 | 1008.1 |
| 20260507144803 | 22 | 231 | 14.5 | 25.7 | 0.00 | 0.00 | 0.00 | 45 | 1008.2 |
| 20260507144304 | 22 | 231 | 12.9 | 24.1 | 0.00 | 0.00 | 0.00 | 47 | 1008.2 |
| 20260507143304 | 22 | 208 | 14.5 | 20.9 | 0.00 | 0.00 | 0.00 | 49 | 1008.3 |
| 20260507142306 | 22 | 227 | 16.1 | 25.7 | 0.00 | 0.00 | 0.00 | 50 | 1008.5 |
| 20260507141804 | 22 | 229 | 17.7 | 25.7 | 0.00 | 0.00 | 0.00 | 52 | 1008.5 |
| 20260507141304 | 22 | 212 | 11.3 | 22.5 | 0.00 | 0.00 | 0.00 | 52 | 1008.5 |
| 20260507140804 | 22 | 212 | 16.1 | 27.4 | 0.00 | 0.00 | 0.00 | 53 | 1008.5 |
| 20260507140304 | 22 | 187 | 14.5 | 27.4 | 0.00 | 0.00 | 0.00 | 53 | 1008.5 |
| 20260507135804 | 22 | 200 | 19.3 | 29.0 | 0.00 | 0.00 | 0.00 | 51 | 1008.6 |
| 20260507134303 | 22 | 161 | 11.3 | 22.5 | 0.00 | 0.00 | 0.00 | 53 | 1008.8 |
| 20260507133804 | 21 | 233 | 12.9 | 27.4 | 0.00 | 0.00 | 0.00 | 53 | 1008.8 |
| 20260507133304 | 21 | 208 | 17.7 | 25.7 | 0.00 | 0.00 | 0.00 | 53 | 1008.9 |
| 20260507132804 | 21 | 216 | 14.5 | 22.5 | 0.00 | 0.00 | 0.00 | 52 | 1008.9 |
| 20260507132307 | 21 | 230 | 12.9 | 22.5 | 0.00 | 0.00 | 0.00 | 53 | 1008.9 |
| 20260507131804 | 21 | 190 | 14.5 | 22.5 | 0.00 | 0.00 | 0.00 | 53 | 1008.9 |
| 20260507131304 | 21 | 177 | 11.3 | 24.1 | 0.00 | 0.00 | 0.00 | 54 | 1008.9 |
| 20260507130804 | 21 | 183 | 17.7 | 32.2 | 0.00 | 0.00 | 0.00 | 53 | 1008.9 |
| 20260507130304 | 21 | 174 | 14.5 | 27.4 | 0.00 | 0.00 | 0.00 | 52 | 1009.0 |
| 20260507125804 | 21 | 205 | 11.3 | 22.5 | 0.00 | 0.00 | 0.00 | 53 | 1009.0 |
| 20260507125306 | 22 | 224 | 11.3 | 24.1 | 0.00 | 0.00 | 0.00 | 52 | 1009.1 |
| 20260507124803 | 22 | 203 | 14.5 | 24.1 | 0.00 | 0.00 | 0.00 | 53 | 1009.1 |
| 20260507124303 | 22 | 182 | 11.3 | 20.9 | 0.00 | 0.00 | 0.00 | 54 | 1009.1 |
| 20260507123804 | 22 | 211 | 14.5 | 25.7 | 0.00 | 0.00 | 0.00 | 53 | 1009.1 |
| 20260507123304 | 22 | 188 | 9.7 | 27.4 | 0.00 | 0.00 | 0.00 | 54 | 1009.2 |
| 20260507122804 | 21 | 215 | 14.5 | 22.5 | 0.00 | 0.00 | 0.00 | 54 | 1009.2 |
| 20260507122307 | 21 | 182 | 12.9 | 27.4 | 0.00 | 0.00 | 0.00 | 55 | 1009.3 |
| 20260507121804 | 22 | 213 | 14.5 | 22.5 | 0.00 | 0.00 | 0.00 | 54 | 1009.3 |
| 20260507121303 | 22 | 206 | 14.5 | 22.5 | 0.00 | 0.00 | 0.00 | 56 | 1009.3 |
| 20260507120804 | 21 | 203 | 11.3 | 22.5 | 0.00 | 0.00 | 0.00 | 55 | 1009.3 |
| 20260507120304 | 21 | 174 | 16.1 | 29.0 | 0.00 | 0.00 | 0.00 | 55 | 1009.4 |
| 20260507115804 | 21 | 223 | 11.3 | 22.5 | 0.00 | 0.00 | 0.00 | 56 | 1009.4 |
| 20260507115307 | 21 | 229 | 14.5 | 29.0 | 0.00 | 0.00 | 0.00 | 56 | 1009.5 |
| 20260507114804 | 21 | 206 | 14.5 | 27.4 | 0.00 | 0.00 | 0.00 | 55 | 1009.4 |
| 20260507114304 | 21 | 191 | 12.9 | 29.0 | 0.00 | 0.00 | 0.00 | 55 | 1009.6 |
| 20260507113803 | 21 | 177 | 11.3 | 20.9 | 0.00 | 0.00 | 0.00 | 56 | 1009.6 |
| 20260507113304 | 21 | 178 | 14.5 | 22.5 | 0.00 | 0.00 | 0.00 | 57 | 1009.6 |
| 20260507112306 | 21 | 207 | 12.9 | 24.1 | 0.00 | 0.00 | 0.00 | 58 | 1009.7 |
| 20260507111804 | 21 | 190 | 9.7 | 20.9 | 0.00 | 0.00 | 0.00 | 58 | 1009.7 |
| 20260507111304 | 20 | 213 | 9.7 | 19.3 | 0.00 | 0.00 | 0.00 | 60 | 1009.8 |
| 20260507110804 | 20 | 219 | 16.1 | 25.7 | 0.00 | 0.00 | 0.00 | 61 | 1009.8 |
| 20260507110304 | 20 | 189 | 17.7 | 32.2 | 0.00 | 0.00 | 0.00 | 60 | 1009.8 |
| 20260507105306 | 20 | 214 | 11.3 | 27.4 | 0.00 | 0.00 | 0.00 | 62 | 1009.8 |
| 20260507104804 | 20 | 210 | 16.1 | 27.4 | 0.00 | 0.00 | 0.00 | 61 | 1009.8 |
| 20260507104303 | 20 | 205 | 9.7 | 20.9 | 0.00 | 0.00 | 0.00 | 61 | 1009.8 |
| 20260507103804 | 20 | 196 | 11.3 | 22.5 | 0.00 | 0.00 | 0.00 | 62 | 1009.8 |
| 20260507102804 | 20 | 178 | 11.3 | 22.5 | 0.00 | 0.00 | 0.00 | 63 | 1009.9 |
| 20260507102306 | 20 | 228 | 11.3 | 22.5 | 0.00 | 0.00 | 0.00 | 64 | 1009.9 |
| 20260507101804 | 20 | 179 | 9.7 | 22.5 | 0.00 | 0.00 | 0.00 | 64 | 1009.9 |
| 20260507100804 | 19 | 175 | 11.3 | 19.3 | 0.00 | 0.00 | 0.00 | 66 | 1010.1 |
| 20260507100304 | 18 | 163 | 8.0 | 19.3 | 0.00 | 0.00 | 0.00 | 66 | 1010.1 |
| 20260507095804 | 19 | 196 | 9.7 | 19.3 | 0.00 | 0.00 | 0.00 | 65 | 1010.1 |
| 20260507095306 | 19 | 189 | 12.9 | 22.5 | 0.00 | 0.00 | 0.00 | 65 | 1010.1 |
| 20260507094803 | 19 | 183 | 12.9 | 22.5 | 0.00 | 0.00 | 0.00 | 66 | 1010.1 |
| 20260507094304 | 19 | 215 | 19.3 | 27.4 | 0.00 | 0.00 | 0.00 | 66 | 1010.1 |
| 20260507093804 | 19 | 206 | 14.5 | 25.7 | 0.00 | 0.00 | 0.00 | 68 | 1010.1 |
| 20260507093304 | 18 | 165 | 11.3 | 20.9 | 0.00 | 0.00 | 0.00 | 69 | 1010.1 |
| 20260507092803 | 18 | 178 | 11.3 | 20.9 | 0.00 | 0.00 | 0.00 | 69 | 1010.1 |
| 20260507092306 | 18 | 162 | 12.9 | 20.9 | 0.00 | 0.00 | 0.00 | 69 | 1010.1 |
| 20260507090804 | 18 | 175 | 16.1 | 22.5 | 0.00 | 0.00 | 0.00 | 71 | 1010.2 |
| 20260507085804 | 18 | 183 | 16.1 | 27.4 | 0.00 | 0.00 | 0.00 | 71 | 1010.2 |
| 20260507085306 | 18 | 142 | 9.7 | 25.7 | 0.00 | 0.00 | 0.00 | 72 | 1010.0 |